sensor_id;sensor_type;location;lat;lon;timestamp;pressure;altitude;pressure_sealevel;temperature;humidity
69911;BME280;63555;49.920;17.868;2023-12-04T00:03:19;99342.69;;;-3.19;93.78
69911;BME280;63555;49.920;17.868;2023-12-04T00:08:19;99344.38;;;-3.18;93.42
69911;BME280;63555;49.920;17.868;2023-12-04T00:13:19;99334.91;;;-3.18;93.66
69911;BME280;63555;49.920;17.868;2023-12-04T00:18:20;99344.41;;;-3.20;93.85
69911;BME280;63555;49.920;17.868;2023-12-04T00:23:20;99349.56;;;-3.22;93.82
69911;BME280;63555;49.920;17.868;2023-12-04T00:28:20;99336.63;;;-3.17;94.55
69911;BME280;63555;49.920;17.868;2023-12-04T00:33:21;99333.09;;;-3.10;95.15
69911;BME280;63555;49.920;17.868;2023-12-04T00:38:21;99344.13;;;-2.97;95.88
69911;BME280;63555;49.920;17.868;2023-12-04T00:43:21;99340.59;;;-2.90;95.96
69911;BME280;63555;49.920;17.868;2023-12-04T00:48:22;99354.31;;;-2.86;96.08
69911;BME280;63555;49.920;17.868;2023-12-04T00:53:22;99356.00;;;-2.84;96.05
69911;BME280;63555;49.920;17.868;2023-12-04T00:58:23;99358.56;;;-2.82;96.22
69911;BME280;63555;49.920;17.868;2023-12-04T01:03:23;99362.03;;;-2.85;95.84
69911;BME280;63555;49.920;17.868;2023-12-04T01:08:26;99353.50;;;-2.89;96.05
69911;BME280;63555;49.920;17.868;2023-12-04T01:13:26;99360.38;;;-2.89;95.81
69911;BME280;63555;49.920;17.868;2023-12-04T01:18:27;99368.97;;;-2.89;95.33
69911;BME280;63555;49.920;17.868;2023-12-04T01:23:27;99373.28;;;-2.89;95.21
69911;BME280;63555;49.920;17.868;2023-12-04T01:28:27;99377.59;;;-2.90;94.13
69911;BME280;63555;49.920;17.868;2023-12-04T01:33:29;99369.00;;;-2.90;93.77
69911;BME280;63555;49.920;17.868;2023-12-04T01:38:30;99364.72;;;-2.93;93.89
69911;BME280;63555;49.920;17.868;2023-12-04T01:43:31;99365.56;;;-2.92;94.23
69911;BME280;63555;49.920;17.868;2023-12-04T01:48:31;99363.00;;;-2.94;93.78
69911;BME280;63555;49.920;17.868;2023-12-04T01:53:33;99366.47;;;-2.95;93.63
69911;BME280;63555;49.920;17.868;2023-12-04T01:58:34;99371.63;;;-2.96;93.34
69911;BME280;63555;49.920;17.868;2023-12-04T02:03:35;99375.97;;;-3.00;92.45
69911;BME280;63555;49.920;17.868;2023-12-04T02:08:36;99366.59;;;-3.05;91.02
69911;BME280;63555;49.920;17.868;2023-12-04T02:13:36;99358.94;;;-3.13;89.08
69911;BME280;63555;49.920;17.868;2023-12-04T02:18:37;99358.19;;;-3.24;87.03
69911;BME280;63555;49.920;17.868;2023-12-04T02:23:41;99352.34;;;-3.40;84.33
69911;BME280;63555;49.920;17.868;2023-12-04T02:28:45;99355.91;;;-3.56;82.29
69911;BME280;63555;49.920;17.868;2023-12-04T02:33:47;99358.69;;;-3.76;79.19
69911;BME280;63555;49.920;17.868;2023-12-04T02:38:50;99357.13;;;-3.97;77.46
69911;BME280;63555;49.920;17.868;2023-12-04T02:43:51;99366.72;;;-4.19;76.05
69911;BME280;63555;49.920;17.868;2023-12-04T02:48:52;99366.84;;;-4.40;74.71
69911;BME280;63555;49.920;17.868;2023-12-04T02:53:52;99378.13;;;-4.62;74.65
69911;BME280;63555;49.920;17.868;2023-12-04T02:58:52;99370.50;;;-4.84;75.50
69911;BME280;63555;49.920;17.868;2023-12-04T03:03:53;99374.84;;;-5.02;75.54
69911;BME280;63555;49.920;17.868;2023-12-04T03:08:53;99386.03;;;-5.16;75.69
69911;BME280;63555;49.920;17.868;2023-12-04T03:13:53;99389.47;;;-5.30;75.40
69911;BME280;63555;49.920;17.868;2023-12-04T03:18:54;99393.78;;;-5.49;73.83
69911;BME280;63555;49.920;17.868;2023-12-04T03:23:54;99406.66;;;-5.73;71.53
69911;BME280;63555;49.920;17.868;2023-12-04T03:28:54;99404.09;;;-6.02;69.93
69911;BME280;63555;49.920;17.868;2023-12-04T03:33:55;99408.31;;;-6.30;68.63
69911;BME280;63555;49.920;17.868;2023-12-04T03:38:55;99415.09;;;-6.55;68.38
69911;BME280;63555;49.920;17.868;2023-12-04T03:43:55;99416.72;;;-6.79;67.81
69911;BME280;63555;49.920;17.868;2023-12-04T03:48:56;99417.44;;;-7.02;68.32
69911;BME280;63555;49.920;17.868;2023-12-04T03:53:56;99417.34;;;-7.21;68.32
69911;BME280;63555;49.920;17.868;2023-12-04T03:58:56;99418.06;;;-7.39;67.96
69911;BME280;63555;49.920;17.868;2023-12-04T04:03:57;99427.34;;;-7.57;66.99
69911;BME280;63555;49.920;17.868;2023-12-04T04:08:58;99423.78;;;-7.76;66.50
69911;BME280;63555;49.920;17.868;2023-12-04T04:13:58;99415.91;;;-7.96;65.48
69911;BME280;63555;49.920;17.868;2023-12-04T04:18:58;99414.84;;;-8.18;65.18
69911;BME280;63555;49.920;17.868;2023-12-04T04:23:59;99422.38;;;-8.38;65.14
69911;BME280;63555;49.920;17.868;2023-12-04T04:28:59;99423.03;;;-8.54;65.73
69911;BME280;63555;49.920;17.868;2023-12-04T04:34:00;99415.97;;;-8.73;64.42
69911;BME280;63555;49.920;17.868;2023-12-04T04:39:01;99420.84;;;-8.93;65.14
69911;BME280;63555;49.920;17.868;2023-12-04T04:44:02;99424.88;;;-9.10;64.83
69911;BME280;63555;49.920;17.868;2023-12-04T04:49:02;99428.09;;;-9.25;64.68
69911;BME280;63555;49.920;17.868;2023-12-04T04:54:06;99432.97;;;-9.40;64.34
69911;BME280;63555;49.920;17.868;2023-12-04T04:59:06;99431.09;;;-9.53;65.16
69911;BME280;63555;49.920;17.868;2023-12-04T05:04:07;99430.00;;;-9.68;65.28
69911;BME280;63555;49.920;17.868;2023-12-04T05:09:07;99438.31;;;-9.79;65.72
69911;BME280;63555;49.920;17.868;2023-12-04T05:14:07;99436.38;;;-9.94;65.49
69911;BME280;63555;49.920;17.868;2023-12-04T05:19:08;99420.81;;;-10.09;65.04
69911;BME280;63555;49.920;17.868;2023-12-04T05:24:08;99423.91;;;-10.28;65.36
69911;BME280;63555;49.920;17.868;2023-12-04T05:29:09;99421.06;;;-10.42;64.84
69911;BME280;63555;49.920;17.868;2023-12-04T05:34:09;99414.06;;;-10.54;65.07
69911;BME280;63555;49.920;17.868;2023-12-04T05:39:09;99404.53;;;-10.64;65.47
69911;BME280;63555;49.920;17.868;2023-12-04T05:44:10;99397.59;;;-10.71;65.39
69911;BME280;63555;49.920;17.868;2023-12-04T05:49:10;99408.50;;;-10.78;64.67
69911;BME280;63555;49.920;17.868;2023-12-04T05:54:10;99407.50;;;-10.86;64.18
69911;BME280;63555;49.920;17.868;2023-12-04T05:59:11;99410.72;;;-10.95;64.50
69911;BME280;63555;49.920;17.868;2023-12-04T06:04:11;99396.91;;;-11.06;63.84
69911;BME280;63555;49.920;17.868;2023-12-04T06:09:11;99391.59;;;-11.18;64.42
69911;BME280;63555;49.920;17.868;2023-12-04T06:14:12;99388.72;;;-11.32;65.08
69911;BME280;63555;49.920;17.868;2023-12-04T06:19:12;99396.09;;;-11.44;64.36
69911;BME280;63555;49.920;17.868;2023-12-04T06:24:13;99396.75;;;-11.53;64.17
69911;BME280;63555;49.920;17.868;2023-12-04T06:29:14;99414.41;;;-11.59;64.83
69911;BME280;63555;49.920;17.868;2023-12-04T06:34:14;99427.00;;;-11.65;64.45
69911;BME280;63555;49.920;17.868;2023-12-04T06:39:16;99427.81;;;-11.66;65.76
69911;BME280;63555;49.920;17.868;2023-12-04T06:44:17;99426.94;;;-11.68;66.62
69911;BME280;63555;49.920;17.868;2023-12-04T06:49:18;99424.44;;;-11.65;66.58
69911;BME280;63555;49.920;17.868;2023-12-04T06:54:18;99430.44;;;-11.63;66.80
69911;BME280;63555;49.920;17.868;2023-12-04T06:59:19;99424.53;;;-11.62;67.20
69911;BME280;63555;49.920;17.868;2023-12-04T07:04:19;99421.97;;;-11.62;66.46
69911;BME280;63555;49.920;17.868;2023-12-04T07:09:23;99419.38;;;-11.65;66.99
69911;BME280;63555;49.920;17.868;2023-12-04T07:14:23;99421.91;;;-11.65;67.45
69911;BME280;63555;49.920;17.868;2023-12-04T07:19:23;99423.69;;;-11.61;68.32
69911;BME280;63555;49.920;17.868;2023-12-04T07:24:24;99428.06;;;-11.55;69.34
69911;BME280;63555;49.920;17.868;2023-12-04T07:29:26;99409.53;;;-11.50;70.15
69911;BME280;63555;49.920;17.868;2023-12-04T07:34:26;99409.72;;;-11.41;70.33
69911;BME280;63555;49.920;17.868;2023-12-04T07:39:28;99411.59;;;-11.34;70.82
69911;BME280;63555;49.920;17.868;2023-12-04T07:44:29;99408.50;;;-11.20;71.53
69911;BME280;63555;49.920;17.868;2023-12-04T07:49:30;99409.59;;;-11.09;72.42
69911;BME280;63555;49.920;17.868;2023-12-04T07:54:30;99400.38;;;-11.03;72.33
69911;BME280;63555;49.920;17.868;2023-12-04T07:59:30;99407.31;;;-10.96;72.94
69911;BME280;63555;49.920;17.868;2023-12-04T08:04:31;99393.91;;;-10.87;72.18
69911;BME280;63555;49.920;17.868;2023-12-04T08:09:31;99403.41;;;-10.78;72.76
69911;BME280;63555;49.920;17.868;2023-12-04T08:14:32;99408.66;;;-10.71;74.22
69911;BME280;63555;49.920;17.868;2023-12-04T08:19:33;99412.25;;;-10.59;74.74
69911;BME280;63555;49.920;17.868;2023-12-04T08:24:34;99413.34;;;-10.47;75.43
69911;BME280;63555;49.920;17.868;2023-12-04T08:29:34;99411.88;;;-10.36;75.86
69911;BME280;63555;49.920;17.868;2023-12-04T08:34:34;99402.72;;;-10.24;76.47
69911;BME280;63555;49.920;17.868;2023-12-04T08:39:35;99396.97;;;-10.11;77.76
69911;BME280;63555;49.920;17.868;2023-12-04T08:44:35;99401.47;;;-9.97;79.04
69911;BME280;63555;49.920;17.868;2023-12-04T08:49:36;99409.38;;;-9.80;79.38
69911;BME280;63555;49.920;17.868;2023-12-04T08:54:39;99403.69;;;-9.64;81.24
69911;BME280;63555;49.920;17.868;2023-12-04T08:59:41;99393.88;;;-9.38;85.07
69911;BME280;63555;49.920;17.868;2023-12-04T09:04:42;99380.88;;;-8.89;92.25
69911;BME280;63555;49.920;17.868;2023-12-04T09:09:42;99370.44;;;-8.26;97.62
69911;BME280;63555;49.920;17.868;2023-12-04T09:14:43;99364.16;;;-7.58;100.00
69911;BME280;63555;49.920;17.868;2023-12-04T09:19:43;99354.28;;;-6.93;100.00
69911;BME280;63555;49.920;17.868;2023-12-04T09:24:44;99348.44;;;-6.32;100.00
69911;BME280;63555;49.920;17.868;2023-12-04T09:29:44;99330.47;;;-5.78;100.00
69911;BME280;63555;49.920;17.868;2023-12-04T09:34:45;99312.34;;;-5.27;100.00
69911;BME280;63555;49.920;17.868;2023-12-04T09:39:45;99316.47;;;-4.82;100.00
69911;BME280;63555;49.920;17.868;2023-12-04T09:44:47;99299.91;;;-4.40;100.00
69911;BME280;63555;49.920;17.868;2023-12-04T09:49:51;99292.78;;;-4.03;100.00
69911;BME280;63555;49.920;17.868;2023-12-04T09:54:53;99291.59;;;-3.67;100.00
69911;BME280;63555;49.920;17.868;2023-12-04T09:59:53;99277.53;;;-3.35;100.00
69911;BME280;63555;49.920;17.868;2023-12-04T10:04:54;99269.41;;;-3.03;100.00
69911;BME280;63555;49.920;17.868;2023-12-04T10:09:54;99256.94;;;-2.72;100.00
69911;BME280;63555;49.920;17.868;2023-12-04T10:15:09;99259.13;;;-2.45;100.00
69911;BME280;63555;49.920;17.868;2023-12-04T10:20:11;99243.25;;;-2.22;100.00
69911;BME280;63555;49.920;17.868;2023-12-04T10:25:16;99241.22;;;-2.03;100.00
69911;BME280;63555;49.920;17.868;2023-12-04T10:30:27;99221.94;;;-1.85;100.00
69911;BME280;63555;49.920;17.868;2023-12-04T10:35:29;99224.19;;;-1.66;100.00
69911;BME280;63555;49.920;17.868;2023-12-04T10:40:36;99199.81;;;-1.52;100.00
69911;BME280;63555;49.920;17.868;2023-12-04T10:45:38;99191.84;;;-1.43;100.00
69911;BME280;63555;49.920;17.868;2023-12-04T10:50:41;99190.00;;;-1.37;100.00
69911;BME280;63555;49.920;17.868;2023-12-04T10:55:42;99181.38;;;-1.37;100.00
69911;BME280;63555;49.920;17.868;2023-12-04T11:00:47;99178.75;;;-1.36;100.00
69911;BME280;63555;49.920;17.868;2023-12-04T11:06:01;99174.41;;;-1.34;100.00
69911;BME280;63555;49.920;17.868;2023-12-04T11:11:03;99155.38;;;-1.31;100.00
69911;BME280;63555;49.920;17.868;2023-12-04T11:16:59;99155.25;;;-1.25;100.00
69911;BME280;63555;49.920;17.868;2023-12-04T11:22:02;99138.81;;;-1.22;100.00
69911;BME280;63555;49.920;17.868;2023-12-04T11:27:03;99131.97;;;-1.25;100.00
69911;BME280;63555;49.920;17.868;2023-12-04T11:32:06;99128.53;;;-1.25;100.00
69911;BME280;63555;49.920;17.868;2023-12-04T11:37:08;99119.88;;;-1.24;100.00
69911;BME280;63555;49.920;17.868;2023-12-04T11:42:09;99109.59;;;-1.27;100.00
69911;BME280;63555;49.920;17.868;2023-12-04T11:47:10;99113.03;;;-1.27;100.00
69911;BME280;63555;49.920;17.868;2023-12-04T11:52:11;99103.53;;;-1.26;100.00
69911;BME280;63555;49.920;17.868;2023-12-04T12:02:12;99091.31;;;-1.20;100.00
69911;BME280;63555;49.920;17.868;2023-12-04T12:07:12;99080.13;;;-1.20;100.00
69911;BME280;63555;49.920;17.868;2023-12-04T12:12:13;99084.53;;;-1.24;100.00
69911;BME280;63555;49.920;17.868;2023-12-04T12:17:14;99075.16;;;-1.30;100.00
69911;BME280;63555;49.920;17.868;2023-12-04T12:22:14;99063.22;;;-1.35;100.00
69911;BME280;63555;49.920;17.868;2023-12-04T12:27:14;99059.78;;;-1.36;100.00
69911;BME280;63555;49.920;17.868;2023-12-04T12:32:15;99052.03;;;-1.36;100.00
69911;BME280;63555;49.920;17.868;2023-12-04T12:37:15;99053.69;;;-1.33;100.00
69911;BME280;63555;49.920;17.868;2023-12-04T12:42:27;99046.09;;;-1.41;100.00
69911;BME280;63555;49.920;17.868;2023-12-04T12:47:29;99043.69;;;-1.48;100.00
69911;BME280;63555;49.920;17.868;2023-12-04T12:52:30;99029.00;;;-1.46;100.00
69911;BME280;63555;49.920;17.868;2023-12-04T12:57:34;99021.97;;;-1.41;100.00
69911;BME280;63555;49.920;17.868;2023-12-04T13:02:37;99002.97;;;-1.39;100.00
69911;BME280;63555;49.920;17.868;2023-12-04T13:07:37;98988.31;;;-1.40;100.00
69911;BME280;63555;49.920;17.868;2023-12-04T13:12:38;98991.91;;;-1.45;100.00
69911;BME280;63555;49.920;17.868;2023-12-04T13:17:38;98980.88;;;-1.53;100.00
69911;BME280;63555;49.920;17.868;2023-12-04T13:22:39;98969.00;;;-1.61;100.00
69911;BME280;63555;49.920;17.868;2023-12-04T13:27:39;98968.31;;;-1.69;100.00
69911;BME280;63555;49.920;17.868;2023-12-04T13:32:40;98962.41;;;-1.75;100.00
69911;BME280;63555;49.920;17.868;2023-12-04T13:37:40;98948.78;;;-1.82;100.00
69911;BME280;63555;49.920;17.868;2023-12-04T13:42:40;98936.84;;;-1.87;100.00
69911;BME280;63555;49.920;17.868;2023-12-04T13:47:59;98931.69;;;-1.87;100.00
69911;BME280;63555;49.920;17.868;2023-12-04T13:53:00;98926.47;;;-1.86;100.00
69911;BME280;63555;49.920;17.868;2023-12-04T13:58:01;98930.69;;;-1.82;100.00
69911;BME280;63555;49.920;17.868;2023-12-04T14:03:04;98919.47;;;-1.81;100.00
69911;BME280;63555;49.920;17.868;2023-12-04T14:08:04;98917.69;;;-1.79;100.00
69911;BME280;63555;49.920;17.868;2023-12-04T14:13:05;98921.16;;;-1.80;100.00
69911;BME280;63555;49.920;17.868;2023-12-04T14:18:05;98907.47;;;-1.83;100.00
69911;BME280;63555;49.920;17.868;2023-12-04T14:23:06;98906.69;;;-1.87;100.00
69911;BME280;63555;49.920;17.868;2023-12-04T14:28:06;98900.88;;;-1.97;100.00
69911;BME280;63555;49.920;17.868;2023-12-04T14:33:07;98910.59;;;-2.06;100.00
69911;BME280;63555;49.920;17.868;2023-12-04T14:38:09;98905.66;;;-2.17;100.00
69911;BME280;63555;49.920;17.868;2023-12-04T14:43:09;98906.78;;;-2.29;100.00
69911;BME280;63555;49.920;17.868;2023-12-04T14:48:11;98908.72;;;-2.38;100.00
69911;BME280;63555;49.920;17.868;2023-12-04T14:53:11;98908.94;;;-2.49;100.00
69911;BME280;63555;49.920;17.868;2023-12-04T14:58:16;98901.34;;;-2.57;100.00
69911;BME280;63555;49.920;17.868;2023-12-04T15:03:35;98910.09;;;-2.65;100.00
69911;BME280;63555;49.920;17.868;2023-12-04T15:08:35;98901.69;;;-2.75;100.00
69911;BME280;63555;49.920;17.868;2023-12-04T15:13:55;98901.06;;;-2.86;99.11
69911;BME280;63555;49.920;17.868;2023-12-04T15:19:07;98901.22;;;-2.95;98.52
69911;BME280;63555;49.920;17.868;2023-12-04T15:24:13;98889.41;;;-3.05;97.32
69911;BME280;63555;49.920;17.868;2023-12-04T15:29:13;98880.00;;;-3.09;96.68
69911;BME280;63555;49.920;17.868;2023-12-04T15:34:14;98885.19;;;-3.11;96.36
69911;BME280;63555;49.920;17.868;2023-12-04T15:39:15;98881.81;;;-3.13;95.74
69911;BME280;63555;49.920;17.868;2023-12-04T15:44:18;98880.94;;;-3.13;96.40
69911;BME280;63555;49.920;17.868;2023-12-04T15:49:19;98878.34;;;-3.12;96.38
69911;BME280;63555;49.920;17.868;2023-12-04T15:54:21;98872.28;;;-3.09;95.75
69911;BME280;63555;49.920;17.868;2023-12-04T15:59:21;98866.28;;;-3.11;95.28
69911;BME280;63555;49.920;17.868;2023-12-04T16:04:21;98864.59;;;-3.12;94.96
69911;BME280;63555;49.920;17.868;2023-12-04T16:09:22;98862.06;;;-3.14;94.67
69911;BME280;63555;49.920;17.868;2023-12-04T16:14:24;98859.50;;;-3.15;93.90
69911;BME280;63555;49.920;17.868;2023-12-04T16:19:24;98867.25;;;-3.17;94.06
69911;BME280;63555;49.920;17.868;2023-12-04T16:24:26;98856.09;;;-3.17;94.52
69911;BME280;63555;49.920;17.868;2023-12-04T16:29:26;98856.94;;;-3.17;94.65
69911;BME280;63555;49.920;17.868;2023-12-04T16:34:33;98853.53;;;-3.17;94.32
69911;BME280;63555;49.920;17.868;2023-12-04T16:39:33;98851.84;;;-3.20;93.82
69911;BME280;63555;49.920;17.868;2023-12-04T16:44:34;98834.72;;;-3.23;93.00
69911;BME280;63555;49.920;17.868;2023-12-04T16:49:34;98842.53;;;-3.27;92.06
69911;BME280;63555;49.920;17.868;2023-12-04T16:54:34;98834.88;;;-3.32;92.18
69911;BME280;63555;49.920;17.868;2023-12-04T16:59:38;98840.09;;;-3.35;91.83
69911;BME280;63555;49.920;17.868;2023-12-04T17:04:38;98836.72;;;-3.38;91.39
69911;BME280;63555;49.920;17.868;2023-12-04T17:09:39;98841.94;;;-3.41;90.47
69911;BME280;63555;49.920;17.868;2023-12-04T17:14:39;98835.16;;;-3.45;90.29
69911;BME280;63555;49.920;17.868;2023-12-04T17:19:40;98839.47;;;-3.49;89.66
69911;BME280;63555;49.920;17.868;2023-12-04T17:24:41;98831.81;;;-3.54;89.64
69911;BME280;63555;49.920;17.868;2023-12-04T17:29:41;98819.88;;;-3.58;89.50
69911;BME280;63555;49.920;17.868;2023-12-04T17:34:42;98814.81;;;-3.62;89.92
69911;BME280;63555;49.920;17.868;2023-12-04T17:39:43;98816.63;;;-3.69;89.98
69911;BME280;63555;49.920;17.868;2023-12-04T17:44:43;98820.09;;;-3.70;91.04
69911;BME280;63555;49.920;17.868;2023-12-04T17:49:43;98820.91;;;-3.68;91.48
69911;BME280;63555;49.920;17.868;2023-12-04T17:54:45;98806.28;;;-3.66;91.34
69911;BME280;63555;49.920;17.868;2023-12-04T17:59:46;98804.56;;;-3.65;90.96
69911;BME280;63555;49.920;17.868;2023-12-04T18:04:47;98789.09;;;-3.65;90.51
69911;BME280;63555;49.920;17.868;2023-12-04T18:09:49;98795.13;;;-3.66;90.63
69911;BME280;63555;49.920;17.868;2023-12-04T18:14:49;98782.28;;;-3.69;90.39
69911;BME280;63555;49.920;17.868;2023-12-04T18:19:51;98795.19;;;-3.69;90.59
69911;BME280;63555;49.920;17.868;2023-12-04T18:24:53;98778.03;;;-3.70;90.75
69911;BME280;63555;49.920;17.868;2023-12-04T18:29:55;98766.84;;;-3.69;90.69
69911;BME280;63555;49.920;17.868;2023-12-04T18:34:56;98769.44;;;-3.71;90.85
69911;BME280;63555;49.920;17.868;2023-12-04T18:39:57;98770.34;;;-3.73;90.32
69911;BME280;63555;49.920;17.868;2023-12-04T18:44:59;98767.78;;;-3.75;90.04
69911;BME280;63555;49.920;17.868;2023-12-04T18:49:59;98757.53;;;-3.76;89.74
69911;BME280;63555;49.920;17.868;2023-12-04T18:55:00;98742.09;;;-3.78;89.44
69911;BME280;63555;49.920;17.868;2023-12-04T19:00:00;98747.31;;;-3.81;89.88
69911;BME280;63555;49.920;17.868;2023-12-04T19:05:01;98752.50;;;-3.84;89.62
69911;BME280;63555;49.920;17.868;2023-12-04T19:10:01;98750.78;;;-3.83;89.90
69911;BME280;63555;49.920;17.868;2023-12-04T19:15:03;98746.47;;;-3.83;89.59
69911;BME280;63555;49.920;17.868;2023-12-04T19:20:05;98747.34;;;-3.84;89.61
69911;BME280;63555;49.920;17.868;2023-12-04T19:25:06;98743.09;;;-3.85;89.12
69911;BME280;63555;49.920;17.868;2023-12-04T19:30:07;98742.25;;;-3.87;89.67
69911;BME280;63555;49.920;17.868;2023-12-04T19:35:08;98739.72;;;-3.89;89.82
69911;BME280;63555;49.920;17.868;2023-12-04T19:40:12;98737.13;;;-3.89;90.16
69911;BME280;63555;49.920;17.868;2023-12-04T19:45:12;98726.78;;;-3.86;90.19
69911;BME280;63555;49.920;17.868;2023-12-04T19:50:13;98725.91;;;-3.85;90.36
69911;BME280;63555;49.920;17.868;2023-12-04T19:55:13;98719.03;;;-3.84;89.78
69911;BME280;63555;49.920;17.868;2023-12-04T20:00:14;98714.75;;;-3.85;90.01
69911;BME280;63555;49.920;17.868;2023-12-04T20:05:14;98719.06;;;-3.86;89.88
69911;BME280;63555;49.920;17.868;2023-12-04T20:10:14;98720.78;;;-3.86;89.74
69911;BME280;63555;49.920;17.868;2023-12-04T20:15:15;98708.84;;;-3.90;89.84
69911;BME280;63555;49.920;17.868;2023-12-04T20:20:17;98692.56;;;-3.92;89.72
69911;BME280;63555;49.920;17.868;2023-12-04T20:25:19;98691.75;;;-3.94;89.54
69911;BME280;63555;49.920;17.868;2023-12-04T20:30:19;98683.16;;;-3.95;89.38
69911;BME280;63555;49.920;17.868;2023-12-04T20:35:20;98676.28;;;-3.94;89.32
69911;BME280;63555;49.920;17.868;2023-12-04T20:40:20;98688.34;;;-3.96;89.16
69911;BME280;63555;49.920;17.868;2023-12-04T20:45:25;98674.66;;;-3.98;89.21
69911;BME280;63555;49.920;17.868;2023-12-04T20:50:27;98670.41;;;-4.01;88.99
69911;BME280;63555;49.920;17.868;2023-12-04T20:55:28;98664.44;;;-4.03;88.51
69911;BME280;63555;49.920;17.868;2023-12-04T21:00:29;98661.09;;;-4.08;86.83
69911;BME280;63555;49.920;17.868;2023-12-04T21:05:31;98658.63;;;-4.14;86.36
69911;BME280;63555;49.920;17.868;2023-12-04T21:10:31;98657.97;;;-4.24;85.85
69911;BME280;63555;49.920;17.868;2023-12-04T21:15:32;98642.69;;;-4.33;84.99
69911;BME280;63555;49.920;17.868;2023-12-04T21:20:34;98645.38;;;-4.40;83.22
69911;BME280;63555;49.920;17.868;2023-12-04T21:25:34;98636.09;;;-4.51;81.19
69911;BME280;63555;49.920;17.868;2023-12-04T21:30:35;98628.56;;;-4.61;79.89
69911;BME280;63555;49.920;17.868;2023-12-04T21:35:35;98613.41;;;-4.76;78.61
69911;BME280;63555;49.920;17.868;2023-12-04T21:40:36;98625.66;;;-4.92;77.53
69911;BME280;63555;49.920;17.868;2023-12-04T21:45:36;98627.66;;;-5.09;76.09
69911;BME280;63555;49.920;17.868;2023-12-04T21:50:37;98627.91;;;-5.28;74.39
69911;BME280;63555;49.920;17.868;2023-12-04T21:55:37;98625.63;;;-5.49;73.54
69911;BME280;63555;49.920;17.868;2023-12-04T22:00:38;98624.19;;;-5.68;72.25
69911;BME280;63555;49.920;17.868;2023-12-04T22:05:38;98625.28;;;-5.88;71.71
69911;BME280;63555;49.920;17.868;2023-12-04T22:10:38;98628.09;;;-6.06;70.66
69911;BME280;63555;49.920;17.868;2023-12-04T22:15:39;98630.88;;;-6.26;70.57
69911;BME280;63555;49.920;17.868;2023-12-04T22:20:40;98625.91;;;-6.43;70.30
69911;BME280;63555;49.920;17.868;2023-12-04T22:25:40;98617.50;;;-6.57;70.45
69911;BME280;63555;49.920;17.868;2023-12-04T22:30:40;98608.25;;;-6.71;70.37
69911;BME280;63555;49.920;17.868;2023-12-04T22:35:42;98610.97;;;-6.90;68.97
69911;BME280;63555;49.920;17.868;2023-12-04T22:40:43;98608.59;;;-7.17;67.06
69911;BME280;63555;49.920;17.868;2023-12-04T22:45:43;98616.47;;;-7.45;66.69
69911;BME280;63555;49.920;17.868;2023-12-04T22:50:43;98611.47;;;-7.63;67.21
69911;BME280;63555;49.920;17.868;2023-12-04T22:55:44;98619.25;;;-7.78;67.98
69911;BME280;63555;49.920;17.868;2023-12-04T23:00:44;98615.00;;;-7.91;67.83
69911;BME280;63555;49.920;17.868;2023-12-04T23:05:45;98619.34;;;-8.06;67.90
69911;BME280;63555;49.920;17.868;2023-12-04T23:10:45;98610.00;;;-8.20;68.13
69911;BME280;63555;49.920;17.868;2023-12-04T23:15:45;98601.56;;;-8.33;68.12
69911;BME280;63555;49.920;17.868;2023-12-04T23:20:46;98597.34;;;-8.45;67.71
69911;BME280;63555;49.920;17.868;2023-12-04T23:25:46;98595.66;;;-8.55;67.87
69911;BME280;63555;49.920;17.868;2023-12-04T23:30:47;98588.00;;;-8.62;68.52
69911;BME280;63555;49.920;17.868;2023-12-04T23:35:47;98580.34;;;-8.72;69.12
69911;BME280;63555;49.920;17.868;2023-12-04T23:40:48;98582.91;;;-8.79;69.99
69911;BME280;63555;49.920;17.868;2023-12-04T23:45:48;98579.50;;;-8.86;70.40
69911;BME280;63555;49.920;17.868;2023-12-04T23:50:48;98571.00;;;-8.92;70.16
69911;BME280;63555;49.920;17.868;2023-12-04T23:55:50;98586.34;;;-8.97;70.64
